Time;durP1;ratioP1;P1;durP2;ratioP2;P2;SDS_P1;SDS_P2;PMS_P1;PMS_P2;Temp;Humidity;BMP_temperature;BMP_pressure;BME280_temperature;BME280_humidity;BME280_pressure;Samples;Min_cycle;Max_cycle;Signal;HPM_P1;HPM_P2
2023/01/03 00:00:41;;;;;;;0.30;0.30;;;;;;;;;;7371966;19;20130;-64
2023/01/03 00:03:06;;;;;;;0.30;0.30;;;;;;;;;;7363651;19;20141;-64
2023/01/03 00:05:34;;;;;;;0.30;0.30;;;;;;;;;;7375053;19;20121;-64
2023/01/03 00:07:59;;;;;;;0.43;0.43;;;;;;;;;;7381316;19;20121;-64
2023/01/03 00:10:24;;;;;;;0.30;0.30;;;;;;;;;;7382226;19;20161;-64
2023/01/03 00:12:49;;;;;;;0.20;0.20;;;;;;;;;;7391843;19;20487;-64
2023/01/03 00:15:15;;;;;;;0.20;0.20;;;;;;;;;;7391833;19;20152;-63
2023/01/03 00:17:41;;;;;;;0.20;0.20;;;;;;;;;;7390599;19;20132;-63
2023/01/03 00:20:08;;;;;;;0.30;0.30;;;;;;;;;;7390726;19;20622;-63
2023/01/03 00:22:33;;;;;;;0.23;0.23;;;;;;;;;;7391163;19;20149;-63
2023/01/03 00:24:59;;;;;;;0.30;0.30;;;;;;;;;;7391035;19;20133;-63
2023/01/03 00:27:25;;;;;;;0.20;0.20;;;;;;;;;;7388487;19;20472;-64
2023/01/03 00:29:50;;;;;;;0.30;0.30;;;;;;;;;;7391783;19;20594;-63
2023/01/03 00:32:15;;;;;;;0.20;0.20;;;;;;;;;;7390574;19;20117;-65
2023/01/03 00:34:43;;;;;;;0.37;0.37;;;;;;;;;;7389561;19;20172;-63
2023/01/03 00:37:08;;;;;;;0.40;0.40;;;;;;;;;;7389564;19;20449;-65
2023/01/03 00:39:33;;;;;;;0.40;0.40;;;;;;;;;;7391934;19;20204;-64
2023/01/03 00:41:59;;;;;;;0.20;0.20;;;;;;;;;;7384076;19;20128;-65
2023/01/03 00:44:24;;;;;;;0.30;0.30;;;;;;;;;;7388302;19;20149;-65
2023/01/03 00:46:49;;;;;;;0.30;0.30;;;;;;;;;;7382926;19;20124;-65
2023/01/03 00:49:15;;;;;;;0.23;0.23;;;;;;;;;;7384816;19;20117;-65
2023/01/03 00:51:41;;;;;;;0.20;0.20;;;;;;;;;;7386433;19;20121;-65
2023/01/03 00:54:07;;;;;;;0.20;0.20;;;;;;;;;;7378170;19;20171;-65
2023/01/03 00:56:36;;;;;;;0.30;0.30;;;;;;;;;;7379495;19;20732;-65
2023/01/03 00:59:01;;;;;;;0.30;0.30;;;;;;;;;;7385624;19;20167;-65
2023/01/03 01:01:33;;;;;;;0.30;0.30;;;;;;;;;;7386060;19;20125;-65
2023/01/03 01:04:10;;;;;;;0.30;0.30;;;;;;;;;;7371284;19;20157;-65
2023/01/03 01:06:41;;;;;;;0.30;0.30;;;;;;;;;;7383452;19;20562;-65
2023/01/03 01:09:10;;;;;;;0.30;0.30;;;;;;;;;;7376072;19;20161;-65
2023/01/03 01:11:35;;;;;;;0.30;0.30;;;;;;;;;;7381546;19;20124;-65
2023/01/03 01:14:00;;;;;;;0.30;0.30;;;;;;;;;;7378681;19;20224;-65
2023/01/03 01:16:30;;;;;;;0.20;0.20;;;;;;;;;;7377931;19;20121;-64
2023/01/03 01:18:58;;;;;;;0.20;0.20;;;;;;;;;;7384189;19;20125;-65
2023/01/03 01:21:29;;;;;;;0.30;0.30;;;;;;;;;;7388888;19;20176;-65
2023/01/03 01:23:55;;;;;;;0.30;0.30;;;;;;;;;;7394061;19;20168;-65
2023/01/03 01:26:22;;;;;;;0.30;0.30;;;;;;;;;;7395397;19;20121;-65
2023/01/03 01:28:48;;;;;;;0.30;0.30;;;;;;;;;;7394021;19;20120;-65
2023/01/03 01:31:16;;;;;;;0.53;0.40;;;;;;;;;;7384256;19;20487;-65
2023/01/03 01:33:41;;;;;;;0.27;0.27;;;;;;;;;;7388575;19;20168;-65
2023/01/03 01:36:09;;;;;;;0.27;0.27;;;;;;;;;;7385975;19;20193;-65
2023/01/03 01:38:34;;;;;;;0.23;0.23;;;;;;;;;;7386387;19;20140;-65
2023/01/03 01:40:59;;;;;;;0.20;0.20;;;;;;;;;;7393572;19;20148;-65
2023/01/03 01:46:19;;;;;;;0.30;0.30;;;;;;;;;;7388218;19;20508;-65
2023/01/03 01:48:46;;;;;;;0.30;0.30;;;;;;;;;;7390634;19;20492;-65
2023/01/03 01:51:12;;;;;;;0.20;0.20;;;;;;;;;;7391393;19;20211;-65
2023/01/03 01:53:39;;;;;;;0.20;0.20;;;;;;;;;;7386915;19;20153;-64
2023/01/03 01:56:07;;;;;;;0.20;0.20;;;;;;;;;;7390923;19;20145;-65
2023/01/03 01:58:36;;;;;;;0.30;0.30;;;;;;;;;;7388028;19;20114;-65
2023/01/03 02:01:07;;;;;;;0.20;0.20;;;;;;;;;;7388334;19;20578;-65
2023/01/03 02:03:32;;;;;;;0.30;0.30;;;;;;;;;;7379468;19;20172;-65
2023/01/03 02:05:59;;;;;;;0.20;0.20;;;;;;;;;;7386550;19;20190;-65
2023/01/03 02:08:24;;;;;;;0.30;0.30;;;;;;;;;;7391589;19;20629;-65
2023/01/03 02:11:08;;;;;;;0.20;0.20;;;;;;;;;;7394394;19;20129;-64
2023/01/03 02:13:52;;;;;;;0.30;0.30;;;;;;;;;;7392486;19;20227;-64
2023/01/03 02:16:36;;;;;;;0.20;0.20;;;;;;;;;;7395692;19;20120;-64
2023/01/03 02:19:24;;;;;;;0.20;0.20;;;;;;;;;;7396672;19;20133;-64
2023/01/03 02:22:19;;;;;;;0.30;0.30;;;;;;;;;;7391070;19;20128;-64
2023/01/03 02:25:02;;;;;;;0.30;0.30;;;;;;;;;;7391428;19;20149;-64
2023/01/03 02:27:55;;;;;;;0.30;0.30;;;;;;;;;;7389831;19;20124;-64
2023/01/03 02:30:27;;;;;;;0.30;0.30;;;;;;;;;;7394627;19;20162;-64
2023/01/03 02:33:09;;;;;;;0.30;0.30;;;;;;;;;;7394624;19;20623;-64
2023/01/03 02:35:58;;;;;;;0.20;0.20;;;;;;;;;;7391061;19;20152;-65
2023/01/03 02:38:38;;;;;;;0.30;0.30;;;;;;;;;;7387043;19;20158;-65
2023/01/03 02:41:24;;;;;;;0.20;0.20;;;;;;;;;;7389513;19;20125;-65
2023/01/03 02:43:58;;;;;;;0.30;0.30;;;;;;;;;;7385359;19;20164;-65
2023/01/03 02:46:32;;;;;;;0.20;0.20;;;;;;;;;;7380735;19;20514;-64
2023/01/03 02:49:10;;;;;;;0.20;0.20;;;;;;;;;;7387789;19;20132;-63
2023/01/03 02:51:44;;;;;;;0.20;0.20;;;;;;;;;;7393300;19;20129;-64
2023/01/03 02:54:14;;;;;;;0.20;0.20;;;;;;;;;;7385742;19;20148;-63
2023/01/03 02:56:47;;;;;;;0.40;0.30;;;;;;;;;;7383371;19;20125;-64
2023/01/03 02:59:14;;;;;;;0.30;0.30;;;;;;;;;;7390317;19;20831;-63
2023/01/03 03:01:44;;;;;;;0.20;0.20;;;;;;;;;;7386495;19;20133;-63
2023/01/03 03:04:11;;;;;;;0.30;0.30;;;;;;;;;;7387625;19;20570;-63
2023/01/03 03:06:53;;;;;;;0.20;0.20;;;;;;;;;;7385055;19;20618;-63
2023/01/03 03:09:18;;;;;;;0.40;0.40;;;;;;;;;;7390126;19;20137;-62
2023/01/03 03:14:40;;;;;;;0.30;0.30;;;;;;;;;;7386655;19;20180;-65
2023/01/03 03:17:10;;;;;;;0.23;0.23;;;;;;;;;;7378178;19;20125;-64
2023/01/03 03:25:40;;;;;;;0.20;0.20;;;;;;;;;;7383023;19;20131;-65
2023/01/03 03:30:58;;;;;;;0.30;0.30;;;;;;;;;;7384321;19;20127;-63
2023/01/03 03:33:25;;;;;;;0.20;0.20;;;;;;;;;;7381954;19;20151;-63
2023/01/03 03:35:55;;;;;;;0.30;0.30;;;;;;;;;;7384627;19;20188;-64
2023/01/03 03:38:28;;;;;;;0.20;0.20;;;;;;;;;;7384731;19;20121;-63
2023/01/03 03:47:02;;;;;;;0.20;0.20;;;;;;;;;;7380568;19;20132;-65
2023/01/03 03:49:37;;;;;;;0.40;0.40;;;;;;;;;;7387203;19;20136;-65
2023/01/03 03:52:06;;;;;;;0.50;0.43;;;;;;;;;;7383042;19;20155;-64
2023/01/03 03:54:34;;;;;;;0.27;0.27;;;;;;;;;;7383919;19;20156;-65
2023/01/03 03:57:05;;;;;;;0.20;0.20;;;;;;;;;;7382667;19;20125;-65
2023/01/03 03:59:32;;;;;;;0.23;0.23;;;;;;;;;;7387811;19;20894;-64
2023/01/03 04:01:58;;;;;;;0.20;0.20;;;;;;;;;;7390055;19;20208;-65
2023/01/03 04:04:28;;;;;;;0.20;0.20;;;;;;;;;;7388887;19;20619;-65
2023/01/03 04:06:53;;;;;;;0.20;0.20;;;;;;;;;;7387855;19;20125;-65
2023/01/03 04:09:19;;;;;;;0.20;0.20;;;;;;;;;;7383689;19;20201;-64
2023/01/03 04:11:44;;;;;;;0.20;0.20;;;;;;;;;;7391918;19;20136;-64
2023/01/03 04:14:10;;;;;;;0.20;0.20;;;;;;;;;;7389899;19;20153;-65
2023/01/03 04:16:36;;;;;;;0.23;0.23;;;;;;;;;;7382749;19;20583;-65
2023/01/03 04:19:02;;;;;;;0.30;0.30;;;;;;;;;;7387098;19;20456;-65
2023/01/03 04:21:27;;;;;;;0.20;0.20;;;;;;;;;;7379397;19;20144;-65
2023/01/03 04:23:52;;;;;;;0.30;0.30;;;;;;;;;;7380956;19;20156;-65
2023/01/03 04:26:18;;;;;;;0.30;0.30;;;;;;;;;;7379940;19;20117;-65
2023/01/03 04:28:43;;;;;;;0.30;0.30;;;;;;;;;;7381215;19;20205;-64
2023/01/03 04:31:08;;;;;;;0.30;0.30;;;;;;;;;;7384533;19;20121;-64
2023/01/03 04:33:34;;;;;;;0.30;0.30;;;;;;;;;;7383468;19;20149;-64
2023/01/03 04:35:59;;;;;;;0.20;0.20;;;;;;;;;;7384670;19;20116;-65
2023/01/03 04:38:24;;;;;;;0.20;0.20;;;;;;;;;;7385477;19;20125;-65
2023/01/03 04:40:50;;;;;;;0.20;0.20;;;;;;;;;;7379882;19;20125;-65
2023/01/03 04:45:59;;;;;;;0.30;0.30;;;;;;;;;;7387929;19;20475;-65
2023/01/03 04:48:24;;;;;;;0.20;0.20;;;;;;;;;;7388544;19;20125;-65
2023/01/03 04:50:54;;;;;;;0.20;0.20;;;;;;;;;;7384907;19;20109;-65
2023/01/03 04:53:20;;;;;;;0.20;0.20;;;;;;;;;;7375355;19;20153;-65
2023/01/03 04:55:46;;;;;;;0.20;0.20;;;;;;;;;;7384687;19;20136;-65
2023/01/03 04:58:12;;;;;;;0.30;0.30;;;;;;;;;;7380988;19;20125;-65
2023/01/03 05:00:37;;;;;;;0.30;0.30;;;;;;;;;;7382249;19;20121;-65
2023/01/03 05:03:02;;;;;;;0.47;0.47;;;;;;;;;;7376266;19;20686;-65
2023/01/03 05:05:28;;;;;;;0.30;0.30;;;;;;;;;;7380784;19;20140;-65
2023/01/03 05:07:53;;;;;;;0.30;0.30;;;;;;;;;;7382003;19;20129;-65
2023/01/03 05:10:18;;;;;;;0.30;0.30;;;;;;;;;;7377724;19;20148;-65
2023/01/03 05:12:58;;;;;;;0.20;0.20;;;;;;;;;;7384642;19;20165;-65
2023/01/03 05:15:27;;;;;;;0.30;0.30;;;;;;;;;;7373574;19;20159;-65
2023/01/03 05:17:52;;;;;;;0.30;0.30;;;;;;;;;;7384651;19;20121;-65
2023/01/03 05:25:48;;;;;;;0.20;0.20;;;;;;;;;;7381452;19;20120;-65
2023/01/03 05:28:14;;;;;;;0.20;0.20;;;;;;;;;;7385641;19;20121;-65
2023/01/03 05:30:39;;;;;;;0.30;0.30;;;;;;;;;;7389265;19;20123;-65
2023/01/03 05:33:04;;;;;;;0.27;0.27;;;;;;;;;;7385637;19;20178;-65
2023/01/03 05:35:29;;;;;;;0.20;0.20;;;;;;;;;;7388863;19;20132;-65
2023/01/03 05:37:55;;;;;;;0.33;0.30;;;;;;;;;;7383738;19;20136;-65
2023/01/03 05:40:20;;;;;;;0.30;0.30;;;;;;;;;;7383995;19;20123;-65
2023/01/03 05:42:45;;;;;;;0.30;0.30;;;;;;;;;;7382052;19;20743;-65
2023/01/03 05:45:11;;;;;;;0.20;0.20;;;;;;;;;;7379620;19;20142;-65
2023/01/03 05:47:36;;;;;;;0.20;0.20;;;;;;;;;;7376319;19;20184;-65
2023/01/03 05:50:01;;;;;;;0.20;0.20;;;;;;;;;;7380069;19;20156;-69
2023/01/03 05:52:26;;;;;;;0.30;0.30;;;;;;;;;;7382157;19;20605;-65
2023/01/03 05:54:52;;;;;;;0.30;0.30;;;;;;;;;;7378400;19;20631;-65
2023/01/03 05:57:17;;;;;;;0.20;0.20;;;;;;;;;;7378488;19;20121;-66
2023/01/03 05:59:42;;;;;;;0.30;0.30;;;;;;;;;;7388400;19;20583;-65
2023/01/03 06:02:08;;;;;;;0.30;0.30;;;;;;;;;;7389173;19;20452;-65
2023/01/03 06:04:33;;;;;;;2.63;0.50;;;;;;;;;;7382999;19;20197;-65
2023/01/03 06:06:58;;;;;;;0.20;0.20;;;;;;;;;;7385247;19;20124;-65
2023/01/03 06:09:23;;;;;;;0.30;0.30;;;;;;;;;;7389441;19;20128;-65
2023/01/03 06:11:49;;;;;;;0.20;0.20;;;;;;;;;;7392167;19;20134;-65
2023/01/03 06:14:14;;;;;;;0.30;0.30;;;;;;;;;;7393036;19;20174;-65
2023/01/03 06:19:23;;;;;;;0.30;0.30;;;;;;;;;;7390544;19;20638;-65
2023/01/03 06:21:49;;;;;;;0.20;0.20;;;;;;;;;;7395141;19;20125;-65
2023/01/03 06:24:14;;;;;;;0.30;0.30;;;;;;;;;;7393880;19;20141;-65
2023/01/03 06:26:39;;;;;;;0.30;0.30;;;;;;;;;;7393587;19;20533;-65
2023/01/03 06:29:05;;;;;;;0.27;0.27;;;;;;;;;;7395812;19;20181;-65
2023/01/03 06:31:31;;;;;;;0.20;0.20;;;;;;;;;;7393958;19;20129;-65
2023/01/03 06:33:56;;;;;;;0.27;0.27;;;;;;;;;;7392864;19;20554;-65
2023/01/03 06:36:22;;;;;;;0.20;0.20;;;;;;;;;;7394638;19;20133;-66
2023/01/03 06:38:48;;;;;;;0.20;0.20;;;;;;;;;;7394980;19;20121;-65
2023/01/03 06:41:15;;;;;;;0.30;0.30;;;;;;;;;;7395245;19;20603;-65
2023/01/03 06:43:40;;;;;;;0.20;0.20;;;;;;;;;;7393495;19;20161;-65
2023/01/03 06:54:24;;;;;;;0.30;0.30;;;;;;;;;;7392681;19;20274;-65
2023/01/03 06:56:50;;;;;;;0.30;0.30;;;;;;;;;;7393355;19;20130;-65
2023/01/03 06:59:16;;;;;;;0.53;0.30;;;;;;;;;;7394092;19;20117;-65
2023/01/03 07:01:41;;;;;;;0.20;0.20;;;;;;;;;;7393637;19;20707;-65
2023/01/03 07:04:06;;;;;;;0.30;0.30;;;;;;;;;;7391953;19;20193;-65
2023/01/03 07:06:32;;;;;;;0.30;0.30;;;;;;;;;;7393082;19;20155;-65
2023/01/03 07:08:57;;;;;;;0.30;0.30;;;;;;;;;;7394256;19;20120;-65
2023/01/03 07:11:22;;;;;;;0.23;0.23;;;;;;;;;;7394492;19;20158;-65
2023/01/03 07:13:58;;;;;;;0.43;0.43;;;;;;;;;;7393501;19;20551;-65
2023/01/03 07:16:30;;;;;;;0.30;0.30;;;;;;;;;;7393569;19;20120;-65
2023/01/03 07:18:55;;;;;;;0.30;0.30;;;;;;;;;;7394298;19;20113;-65
2023/01/03 07:21:22;;;;;;;0.50;0.50;;;;;;;;;;7391516;19;20125;-65
2023/01/03 07:23:47;;;;;;;0.30;0.30;;;;;;;;;;7393758;19;20209;-65
2023/01/03 07:26:13;;;;;;;0.30;0.30;;;;;;;;;;7393111;19;20595;-65
2023/01/03 07:28:38;;;;;;;0.33;0.33;;;;;;;;;;7394301;19;20117;-65
2023/01/03 07:31:04;;;;;;;0.30;0.30;;;;;;;;;;7395820;19;20121;-65
2023/01/03 07:33:30;;;;;;;0.20;0.20;;;;;;;;;;7391290;19;20154;-65
2023/01/03 07:36:04;;;;;;;0.40;0.40;;;;;;;;;;7393059;19;20467;-65
2023/01/03 07:38:29;;;;;;;0.30;0.30;;;;;;;;;;7392525;19;20487;-65
2023/01/03 07:40:56;;;;;;;0.20;0.20;;;;;;;;;;7395065;19;20132;-65
2023/01/03 07:43:36;;;;;;;0.23;0.23;;;;;;;;;;7392671;19;20699;-65
2023/01/03 07:46:17;;;;;;;0.30;0.30;;;;;;;;;;7392669;19;20152;-65
2023/01/03 07:48:43;;;;;;;0.30;0.30;;;;;;;;;;7393494;19;20146;-65
2023/01/03 07:51:10;;;;;;;0.20;0.20;;;;;;;;;;7391657;19;20555;-65
2023/01/03 07:53:36;;;;;;;0.30;0.30;;;;;;;;;;7390935;19;20153;-65
2023/01/03 07:56:06;;;;;;;0.30;0.30;;;;;;;;;;7391053;19;20129;-65
2023/01/03 07:58:31;;;;;;;0.20;0.20;;;;;;;;;;7391710;19;20591;-65
2023/01/03 08:01:05;;;;;;;0.30;0.30;;;;;;;;;;7391344;19;20141;-65
2023/01/03 08:03:30;;;;;;;0.30;0.30;;;;;;;;;;7392823;19;20152;-65
2023/01/03 08:06:01;;;;;;;0.23;0.23;;;;;;;;;;7390749;19;20674;-65
2023/01/03 08:08:27;;;;;;;0.30;0.30;;;;;;;;;;7391733;19;20515;-65
2023/01/03 08:13:36;;;;;;;0.23;0.23;;;;;;;;;;7392203;19;20163;-65
2023/01/03 08:16:01;;;;;;;0.30;0.30;;;;;;;;;;7392893;19;20642;-65
2023/01/03 08:18:27;;;;;;;0.40;0.40;;;;;;;;;;7390916;19;20141;-65
2023/01/03 08:20:55;;;;;;;0.30;0.30;;;;;;;;;;7391191;19;20137;-65
2023/01/03 08:23:21;;;;;;;0.30;0.30;;;;;;;;;;7390445;19;20651;-65
2023/01/03 08:25:46;;;;;;;0.30;0.30;;;;;;;;;;7392019;19;20129;-65
2023/01/03 08:28:13;;;;;;;0.30;0.30;;;;;;;;;;7388641;19;20150;-65
2023/01/03 08:30:44;;;;;;;0.33;0.33;;;;;;;;;;7389872;19;20455;-65
2023/01/03 08:33:12;;;;;;;0.30;0.30;;;;;;;;;;7389633;19;20622;-65
2023/01/03 08:35:41;;;;;;;0.20;0.20;;;;;;;;;;7390072;19;20130;-65
2023/01/03 08:38:10;;;;;;;0.47;0.47;;;;;;;;;;7377761;19;20462;-65
2023/01/03 08:40:36;;;;;;;0.30;0.30;;;;;;;;;;7374533;19;20156;-65
2023/01/03 08:43:03;;;;;;;0.50;0.50;;;;;;;;;;7377955;19;20852;-65
2023/01/03 08:45:28;;;;;;;0.30;0.30;;;;;;;;;;7380246;19;20125;-64
2023/01/03 08:47:56;;;;;;;0.20;0.20;;;;;;;;;;7381663;19;20192;-65
2023/01/03 08:50:21;;;;;;;0.30;0.30;;;;;;;;;;7385870;19;20133;-65
2023/01/03 08:52:47;;;;;;;0.30;0.30;;;;;;;;;;7382805;19;20476;-65
2023/01/03 08:55:12;;;;;;;0.53;0.40;;;;;;;;;;7378942;19;20482;-64
2023/01/03 08:57:39;;;;;;;0.27;0.27;;;;;;;;;;7382017;19;20117;-65
2023/01/03 09:00:04;;;;;;;0.30;0.30;;;;;;;;;;7384179;19;20137;-63
2023/01/03 09:02:32;;;;;;;0.20;0.20;;;;;;;;;;7380350;19;20658;-65
2023/01/03 09:04:57;;;;;;;0.30;0.30;;;;;;;;;;7376125;19;20144;-65
2023/01/03 09:07:23;;;;;;;0.30;0.30;;;;;;;;;;7378894;19;20125;-65
2023/01/03 09:09:48;;;;;;;0.20;0.20;;;;;;;;;;7376110;19;20200;-64
2023/01/03 09:12:13;;;;;;;0.30;0.30;;;;;;;;;;7382374;19;20598;-63
2023/01/03 09:14:39;;;;;;;0.20;0.20;;;;;;;;;;7383858;19;20188;-63
2023/01/03 09:17:04;;;;;;;0.20;0.20;;;;;;;;;;7387109;19;20468;-65
2023/01/03 09:19:29;;;;;;;0.40;0.40;;;;;;;;;;7380090;19;20150;-65
2023/01/03 09:21:54;;;;;;;0.30;0.30;;;;;;;;;;7372713;19;20121;-65
2023/01/03 09:24:20;;;;;;;0.20;0.20;;;;;;;;;;7386891;19;20484;-64
2023/01/03 09:26:45;;;;;;;0.30;0.30;;;;;;;;;;7378337;19;20132;-64
2023/01/03 09:29:10;;;;;;;0.30;0.30;;;;;;;;;;7373262;19;20606;-65
2023/01/03 09:31:36;;;;;;;0.37;0.37;;;;;;;;;;7375045;19;20154;-65
2023/01/03 09:34:04;;;;;;;0.50;0.50;;;;;;;;;;7376618;19;20161;-64
2023/01/03 09:36:30;;;;;;;0.30;0.30;;;;;;;;;;7384921;19;20531;-65
2023/01/03 09:38:55;;;;;;;0.30;0.30;;;;;;;;;;7380478;19;20124;-65
2023/01/03 09:41:22;;;;;;;0.20;0.20;;;;;;;;;;7376711;19;20129;-65
2023/01/03 09:43:49;;;;;;;0.30;0.30;;;;;;;;;;7381664;19;20149;-65
2023/01/03 09:46:23;;;;;;;0.30;0.30;;;;;;;;;;7384878;19;20137;-65
2023/01/03 09:48:49;;;;;;;0.30;0.30;;;;;;;;;;7388815;19;20158;-65
2023/01/03 10:06:12;;;;;;;0.50;0.50;;;;;;;;;;7388851;19;20131;-65
2023/01/03 10:08:45;;;;;;;0.30;0.30;;;;;;;;;;7372865;19;20148;-65
2023/01/03 10:11:57;;;;;;;0.20;0.20;;;;;;;;;;7371318;19;20145;-65
2023/01/03 10:14:35;;;;;;;0.20;0.20;;;;;;;;;;7382801;19;20172;-65
2023/01/03 10:17:22;;;;;;;0.30;0.30;;;;;;;;;;7390685;19;20586;-65
2023/01/03 10:20:12;;;;;;;0.20;0.20;;;;;;;;;;7389779;19;20132;-65
2023/01/03 10:22:38;;;;;;;0.27;0.27;;;;;;;;;;7391725;19;20117;-65
2023/01/03 10:25:03;;;;;;;0.30;0.30;;;;;;;;;;7386182;19;20145;-65
2023/01/03 10:27:30;;;;;;;0.30;0.30;;;;;;;;;;7388600;19;20140;-65
2023/01/03 10:29:59;;;;;;;0.30;0.30;;;;;;;;;;7389665;19;20125;-65
2023/01/03 10:33:02;;;;;;;0.40;0.40;;;;;;;;;;7362950;19;20113;-65
2023/01/03 10:35:36;;;;;;;0.30;0.30;;;;;;;;;;7391271;19;20121;-65
2023/01/03 10:38:02;;;;;;;0.37;0.37;;;;;;;;;;7389563;19;20121;-65
2023/01/03 10:40:33;;;;;;;0.40;0.40;;;;;;;;;;7386166;19;20486;-65
2023/01/03 10:43:06;;;;;;;0.30;0.30;;;;;;;;;;7386440;19;20153;-65
2023/01/03 10:45:33;;;;;;;0.30;0.30;;;;;;;;;;7372854;19;20144;-65
2023/01/03 10:48:00;;;;;;;0.20;0.20;;;;;;;;;;7382365;19;20129;-65
2023/01/03 10:50:26;;;;;;;0.30;0.30;;;;;;;;;;7376094;19;20124;-65
2023/01/03 10:53:07;;;;;;;0.27;0.27;;;;;;;;;;7375210;19;20791;-65
2023/01/03 10:55:33;;;;;;;0.30;0.30;;;;;;;;;;7378105;19;20202;-65
2023/01/03 10:58:01;;;;;;;0.20;0.20;;;;;;;;;;7385086;19;20125;-65
2023/01/03 22:56:28;;;;;;;1.10;1.10;;;;;;;;;;7364858;19;20191;-65
2023/01/03 22:58:53;;;;;;;1.60;1.43;;;;;;;;;;7356687;19;20810;-65
2023/01/03 23:01:26;;;;;;;2.07;1.23;;;;;;;;;;7363943;19;20255;-65
2023/01/03 23:03:52;;;;;;;2.07;1.60;;;;;;;;;;7372084;19;21139;-65
2023/01/03 23:06:19;;;;;;;0.80;0.80;;;;;;;;;;7378293;19;20137;-65
2023/01/03 23:08:50;;;;;;;0.93;0.80;;;;;;;;;;7378792;19;20125;-65
2023/01/03 23:14:06;;;;;;;2.13;1.33;;;;;;;;;;7373137;19;20229;-65
2023/01/03 23:16:31;;;;;;;2.20;2.10;;;;;;;;;;7359591;19;20145;-66
2023/01/03 23:18:57;;;;;;;1.10;1.03;;;;;;;;;;7370509;19;20159;-65
2023/01/03 23:21:22;;;;;;;5.77;2.33;;;;;;;;;;7361965;19;20478;-66
2023/01/03 23:23:51;;;;;;;1.87;1.67;;;;;;;;;;7352854;19;20152;-65
2023/01/03 23:26:16;;;;;;;2.60;1.60;;;;;;;;;;7370688;19;20129;-65
2023/01/03 23:28:42;;;;;;;1.33;0.77;;;;;;;;;;7380201;19;20156;-65
2023/01/03 23:31:08;;;;;;;1.30;1.20;;;;;;;;;;7370760;19;20341;-66
2023/01/03 23:33:34;;;;;;;1.77;1.67;;;;;;;;;;7386242;19;20147;-65
2023/01/03 23:36:08;;;;;;;0.80;0.80;;;;;;;;;;7385342;19;20486;-65
2023/01/03 23:38:33;;;;;;;1.20;1.10;;;;;;;;;;7388054;19;20141;-65
2023/01/03 23:40:58;;;;;;;1.80;1.70;;;;;;;;;;7382976;19;20129;-66
2023/01/03 23:43:24;;;;;;;0.77;0.77;;;;;;;;;;7383788;19;20151;-65
2023/01/03 23:45:49;;;;;;;1.53;1.43;;;;;;;;;;7386089;19;20480;-65
2023/01/03 23:48:15;;;;;;;2.80;1.77;;;;;;;;;;7389781;19;20117;-65
2023/01/03 23:50:40;;;;;;;0.50;0.50;;;;;;;;;;7387066;19;20125;-65
2023/01/03 23:53:06;;;;;;;0.70;0.70;;;;;;;;;;7388296;19;20141;-65
2023/01/03 23:55:31;;;;;;;0.80;0.80;;;;;;;;;;7384574;19;20540;-65
2023/01/03 23:57:56;;;;;;;0.73;0.73;;;;;;;;;;7388376;19;20121;-65
